Time;durP1;ratioP1;P1;durP2;ratioP2;P2;SDS_P1;SDS_P2;PMS_P1;PMS_P2;Temp;Humidity;BMP_temperature;BMP_pressure;BME280_temperature;BME280_humidity;BME280_pressure;Samples;Min_cycle;Max_cycle;Signal;HPM_P1;HPM_P2
2023/11/18 00:00:27;;;;;;;19.80;14.00;;;;;;;2.39;100.00;96520.68;107151;1278;138628;-87
2023/11/18 00:03:13;;;;;;;18.30;13.40;;;;;;;2.44;100.00;96513.04;107222;1278;24459;-87
2023/11/18 00:05:40;;;;;;;17.10;14.00;;;;;;;2.45;100.00;96514.78;107091;1272;139203;-88
2023/11/18 00:08:06;;;;;;;17.40;13.80;;;;;;;2.53;100.00;96514.14;107245;1273;22760;-87
2023/11/18 00:10:32;;;;;;;15.90;12.00;;;;;;;2.57;100.00;96519.60;107172;1278;22549;-87
2023/11/18 00:12:59;;;;;;;15.60;10.80;;;;;;;2.57;100.00;96516.66;107159;1276;138409;-87
2023/11/18 00:15:25;;;;;;;13.80;10.90;;;;;;;2.52;100.00;96515.75;107232;1278;25257;-88
2023/11/18 00:17:52;;;;;;;14.40;11.30;;;;;;;2.46;100.00;96521.90;106985;1278;139162;-88
2023/11/18 00:20:20;;;;;;;15.70;11.10;;;;;;;2.47;100.00;96518.05;107141;1262;23274;-87
2023/11/18 00:22:46;;;;;;;13.00;10.80;;;;;;;2.47;100.00;96522.33;107158;1278;22571;-88
2023/11/18 00:25:14;;;;;;;13.40;10.30;;;;;;;2.52;100.00;96526.36;107073;1278;138472;-87
2023/11/18 00:27:40;;;;;;;12.70;9.80;;;;;;;2.52;100.00;96528.77;107248;1276;22536;-88
2023/11/18 00:30:10;;;;;;;14.10;10.50;;;;;;;2.49;100.00;96530.86;106991;1278;138957;-87
2023/11/18 00:32:38;;;;;;;14.40;11.00;;;;;;;2.52;100.00;96531.79;107015;1278;22553;-87
2023/11/18 00:35:04;;;;;;;13.50;10.30;;;;;;;2.57;100.00;96535.98;110187;1277;22362;-88
2023/11/18 00:37:31;;;;;;;14.90;10.90;;;;;;;2.57;100.00;96539.05;110206;1270;139106;-87
2023/11/18 00:39:57;;;;;;;14.10;10.40;;;;;;;2.59;100.00;96539.27;110269;1278;22219;-88
2023/11/18 00:42:23;;;;;;;12.60;10.80;;;;;;;2.66;100.00;96541.73;110065;1273;138761;-88
2023/11/18 00:44:49;;;;;;;13.90;10.50;;;;;;;2.69;100.00;96546.48;110289;1277;22682;-88
2023/11/18 00:47:15;;;;;;;11.70;9.80;;;;;;;2.78;100.00;96548.44;110303;1278;22421;-88
2023/11/18 00:49:41;;;;;;;14.00;11.50;;;;;;;2.80;100.00;96550.17;108619;1275;138480;-88
2023/11/18 00:52:08;;;;;;;13.90;11.90;;;;;;;2.84;100.00;96551.50;107270;1276;23004;-87
2023/11/18 00:54:34;;;;;;;14.80;11.30;;;;;;;2.88;100.00;96552.21;107260;1276;138331;-88
2023/11/18 00:57:01;;;;;;;15.20;11.50;;;;;;;2.88;100.00;96551.89;107270;1278;24285;-87
2023/11/18 00:59:27;;;;;;;12.40;11.10;;;;;;;2.89;100.00;96549.02;107260;1276;23420;-87
2023/11/18 01:01:53;;;;;;;13.30;10.80;;;;;;;2.87;100.00;96545.97;107093;1278;139042;-87
2023/11/18 01:04:19;;;;;;;15.90;13.00;;;;;;;2.86;100.00;96549.29;107235;1278;24208;-87
2023/11/18 01:06:47;;;;;;;14.30;11.00;;;;;;;2.82;100.00;96548.61;107073;1278;138377;-87
2023/11/18 01:09:13;;;;;;;17.50;13.50;;;;;;;2.78;100.00;96547.05;107281;1276;22613;-87
2023/11/18 01:11:39;;;;;;;20.40;11.80;;;;;;;2.69;100.00;96548.98;107130;1278;138963;-88
2023/11/18 01:14:06;;;;;;;15.20;12.10;;;;;;;2.63;100.00;96550.37;107327;1266;24177;-87
2023/11/18 01:16:33;;;;;;;14.30;11.90;;;;;;;2.62;100.00;96544.97;107350;1275;25108;-87
2023/11/18 01:18:59;;;;;;;14.20;12.40;;;;;;;2.60;100.00;96544.63;107146;1276;139452;-88
2023/11/18 01:21:25;;;;;;;12.60;10.50;;;;;;;2.58;100.00;96542.07;107301;1277;25399;-87
2023/11/18 01:23:51;;;;;;;14.70;11.80;;;;;;;2.52;100.00;96540.70;107217;1278;138832;-87
2023/11/18 01:26:17;;;;;;;13.30;10.20;;;;;;;2.50;100.00;96532.67;107258;1278;23066;-87
2023/11/18 01:28:44;;;;;;;14.90;12.00;;;;;;;2.49;100.00;96532.30;107230;1276;22546;-88
2023/11/18 01:31:11;;;;;;;15.00;12.20;;;;;;;2.48;100.00;96533.16;107121;1277;138972;-87
2023/11/18 01:33:39;;;;;;;15.50;12.10;;;;;;;2.45;100.00;96534.13;107204;1276;25330;-87
2023/11/18 01:36:09;;;;;;;15.90;12.80;;;;;;;2.43;100.00;96533.41;110213;1278;139567;-88
2023/11/18 01:38:37;;;;;;;18.00;12.80;;;;;;;2.47;100.00;96533.42;110210;1278;22182;-87
2023/11/18 01:41:05;;;;;;;15.50;12.90;;;;;;;2.51;100.00;96534.35;110212;1278;22300;-88
2023/11/18 01:43:31;;;;;;;13.70;11.30;;;;;;;2.50;100.00;96531.81;109984;1277;138711;-88
2023/11/18 01:46:05;;;;;;;13.70;11.20;;;;;;;2.52;100.00;96529.26;107569;1278;24232;-88
2023/11/18 01:48:33;;;;;;;13.90;11.70;;;;;;;2.52;100.00;96526.15;107154;1272;138621;-87
2023/11/18 01:50:59;;;;;;;11.70;10.00;;;;;;;2.54;100.00;96519.89;107235;1278;22514;-88
2023/11/18 01:53:26;;;;;;;11.20;8.90;;;;;;;2.53;100.00;96523.70;107241;1276;22541;-87
2023/11/18 01:55:52;;;;;;;13.10;10.00;;;;;;;2.52;100.00;96529.58;107183;1277;138148;-87
2023/11/18 01:58:19;;;;;;;12.20;9.00;;;;;;;2.53;100.00;96528.95;107170;1277;22617;-88
2023/11/18 02:00:46;;;;;;;10.70;8.40;;;;;;;2.53;100.00;96529.98;107166;1276;138791;-88
2023/11/18 02:03:12;;;;;;;9.20;8.20;;;;;;;2.48;100.00;96527.70;107116;1276;23910;-87
2023/11/18 02:05:38;;;;;;;9.80;8.50;;;;;;;2.44;100.00;96529.05;107203;1276;138752;-87
2023/11/18 02:08:06;;;;;;;11.30;9.70;;;;;;;2.43;100.00;96530.52;107324;1276;25574;-87
2023/11/18 02:10:50;;;;;;;9.90;8.10;;;;;;;2.41;100.00;96531.54;107314;1276;25409;-87
2023/11/18 02:13:24;;;;;;;12.50;9.90;;;;;;;2.40;100.00;96531.20;107058;1277;138004;-87
2023/11/18 02:15:56;;;;;;;13.10;9.60;;;;;;;2.43;100.00;96537.67;110331;1277;22197;-88
2023/11/18 02:18:26;;;;;;;12.40;10.80;;;;;;;2.38;100.00;96535.85;110039;1278;138443;-88
2023/11/18 02:20:54;;;;;;;15.30;11.40;;;;;;;2.33;100.00;96537.13;110201;1269;23170;-88
2023/11/18 02:23:21;;;;;;;11.70;9.10;;;;;;;2.35;100.00;96538.16;109066;1278;25405;-88
2023/11/18 02:25:47;;;;;;;10.90;9.40;;;;;;;2.38;100.00;96542.41;107083;1275;138961;-88
2023/11/18 02:28:13;;;;;;;10.00;9.00;;;;;;;2.35;100.00;96543.77;107054;1278;23003;-87
2023/11/18 02:30:40;;;;;;;12.40;11.00;;;;;;;2.31;100.00;96545.84;107041;1278;138318;-88
2023/11/18 02:33:14;;;;;;;11.40;9.70;;;;;;;2.31;100.00;96547.21;107117;1273;26380;-87
2023/11/18 02:35:51;;;;;;;11.80;10.60;;;;;;;2.36;100.00;96546.10;107047;1278;140095;-88
2023/11/18 02:38:21;;;;;;;12.90;10.50;;;;;;;2.40;100.00;96544.71;107141;1278;25426;-87
2023/11/18 02:40:51;;;;;;;11.00;9.70;;;;;;;2.37;100.00;96548.91;108019;1278;22749;-87
2023/11/18 02:43:17;;;;;;;9.90;8.70;;;;;;;2.33;100.00;96550.16;109940;1272;139192;-88
2023/11/18 02:45:43;;;;;;;9.90;8.10;;;;;;;2.31;100.00;96555.73;110220;1274;22251;-88
2023/11/18 02:48:09;;;;;;;9.20;8.20;;;;;;;2.32;100.00;96554.13;110188;1275;140018;-88
2023/11/18 02:50:35;;;;;;;9.30;7.70;;;;;;;2.33;100.00;96556.61;110183;1277;22199;-88
2023/11/18 02:53:02;;;;;;;9.10;8.10;;;;;;;2.35;100.00;96549.47;110261;1279;22121;-89
2023/11/18 02:55:29;;;;;;;9.30;8.00;;;;;;;2.37;100.00;96551.48;110176;1277;138415;-88
2023/11/18 02:57:55;;;;;;;9.80;8.80;;;;;;;2.37;100.00;96553.02;107366;1278;22646;-88
2023/11/18 03:00:23;;;;;;;9.90;8.90;;;;;;;2.36;100.00;96554.02;107061;1277;139142;-87
2023/11/18 03:02:51;;;;;;;8.80;7.90;;;;;;;2.37;100.00;96553.02;107209;1278;22534;-87
2023/11/18 03:05:20;;;;;;;11.80;8.90;;;;;;;2.38;100.00;96556.41;107064;1278;22614;-87
2023/11/18 03:07:49;;;;;;;8.90;7.90;;;;;;;2.34;100.00;96561.80;107178;1277;139046;-87
2023/11/18 03:10:23;;;;;;;9.30;8.20;;;;;;;2.34;100.00;96564.04;110123;1276;22225;-87
2023/11/18 03:12:53;;;;;;;9.40;8.50;;;;;;;2.36;100.00;96569.39;110109;1277;138136;-87
2023/11/18 03:15:19;;;;;;;8.80;7.80;;;;;;;2.36;100.00;96572.25;108730;1278;22645;-87
2023/11/18 03:17:48;;;;;;;8.90;7.80;;;;;;;2.40;100.00;96574.02;107115;1277;138341;-87
2023/11/18 03:20:16;;;;;;;8.10;7.30;;;;;;;2.42;100.00;96576.92;107141;1278;22560;-88
2023/11/18 03:22:45;;;;;;;10.60;9.30;;;;;;;2.44;100.00;96580.39;110187;1267;22190;-88
2023/11/18 03:25:12;;;;;;;8.70;7.40;;;;;;;2.43;100.00;96584.35;109918;1279;138939;-87
2023/11/18 03:27:38;;;;;;;8.70;7.70;;;;;;;2.44;100.00;96587.58;110266;1278;22253;-88
2023/11/18 03:30:06;;;;;;;8.90;7.50;;;;;;;2.33;100.00;96595.09;107929;1278;138978;-88
2023/11/18 03:32:33;;;;;;;7.60;6.80;;;;;;;2.22;100.00;96596.18;110293;1278;22231;-88
2023/11/18 03:34:59;;;;;;;8.30;6.80;;;;;;;2.17;100.00;96596.88;110231;1275;22224;-87
2023/11/18 03:37:26;;;;;;;7.90;6.40;;;;;;;2.19;100.00;96596.27;110249;1277;138748;-88
2023/11/18 03:39:52;;;;;;;7.60;6.80;;;;;;;2.19;100.00;96594.55;110318;1278;22196;-88
2023/11/18 03:42:19;;;;;;;6.90;6.30;;;;;;;2.22;100.00;96591.36;110032;1278;139748;-88
2023/11/18 03:44:47;;;;;;;6.70;6.00;;;;;;;2.26;100.00;96590.41;110159;1278;22222;-88
2023/11/18 03:47:14;;;;;;;6.50;5.90;;;;;;;2.32;100.00;96590.38;110076;1278;205089;-88
2023/11/18 03:49:41;;;;;;;6.50;5.80;;;;;;;2.37;100.00;96590.16;110064;1279;138573;-88
2023/11/18 03:52:07;;;;;;;6.60;5.90;;;;;;;2.42;100.00;96590.73;110159;1278;23061;-88
2023/11/18 03:54:33;;;;;;;7.30;6.60;;;;;;;2.48;100.00;96589.31;110113;1277;138383;-88
2023/11/18 03:56:59;;;;;;;7.60;6.50;;;;;;;2.53;100.00;96591.92;110214;1279;22292;-88
2023/11/18 03:59:25;;;;;;;5.90;5.40;;;;;;;2.61;100.00;96592.27;110223;1272;22435;-88
2023/11/18 04:01:51;;;;;;;7.20;6.60;;;;;;;2.66;100.00;96593.40;110083;1278;138280;-88
2023/11/18 04:04:18;;;;;;;7.20;6.40;;;;;;;2.69;100.00;96592.27;107298;1278;23084;-87
2023/11/18 04:06:44;;;;;;;8.80;6.40;;;;;;;2.70;100.00;96587.52;107054;1278;138046;-88
2023/11/18 04:09:10;;;;;;;6.80;6.10;;;;;;;2.71;100.00;96585.11;107184;1278;25340;-87
2023/11/18 04:11:38;;;;;;;7.00;6.30;;;;;;;2.71;100.00;96587.69;107028;1278;138790;-88
2023/11/18 04:14:04;;;;;;;8.20;7.30;;;;;;;2.64;100.00;96589.45;107234;1267;22646;-88
2023/11/18 04:16:30;;;;;;;7.80;7.10;;;;;;;2.52;100.00;96590.16;107114;1278;24336;-87
2023/11/18 04:18:56;;;;;;;6.80;6.20;;;;;;;2.44;100.00;96590.98;107119;1277;138174;-87
2023/11/18 04:21:22;;;;;;;8.00;7.20;;;;;;;2.31;100.00;96594.77;107206;1278;23190;-87
2023/11/18 04:23:48;;;;;;;11.10;9.10;;;;;;;2.26;100.00;96598.58;107014;1278;138111;-87
2023/11/18 04:26:15;;;;;;;9.00;8.20;;;;;;;2.29;100.00;96598.67;110268;1278;22286;-87
2023/11/18 04:28:41;;;;;;;10.50;9.20;;;;;;;2.28;100.00;96598.75;110226;1277;22954;-88
2023/11/18 04:31:07;;;;;;;10.80;9.80;;;;;;;2.30;100.00;96597.44;110086;1278;139312;-87
2023/11/18 04:33:33;;;;;;;8.20;7.40;;;;;;;2.31;100.00;96597.48;109014;1277;22538;-87
2023/11/18 04:35:59;;;;;;;10.10;9.10;;;;;;;2.38;100.00;96596.34;107048;1278;138163;-87
2023/11/18 04:38:25;;;;;;;7.50;6.70;;;;;;;2.39;100.00;96593.35;107213;1277;25445;-87
2023/11/18 04:40:52;;;;;;;7.20;6.50;;;;;;;2.33;100.00;96591.90;107055;1277;24202;-87
2023/11/18 04:43:18;;;;;;;8.20;7.30;;;;;;;2.27;100.00;96592.88;107003;1278;139056;-87
2023/11/18 04:45:44;;;;;;;6.60;6.00;;;;;;;2.23;100.00;96591.87;107231;1278;22639;-87
2023/11/18 04:48:10;;;;;;;6.60;6.00;;;;;;;2.19;100.00;96594.03;107074;1260;138674;-87
2023/11/18 04:50:36;;;;;;;6.40;5.80;;;;;;;2.13;100.00;96591.98;107262;1278;25520;-87
2023/11/18 04:53:03;;;;;;;6.50;4.80;;;;;;;2.05;100.00;96591.54;107155;1278;22747;-87
2023/11/18 04:55:29;;;;;;;7.80;6.20;;;;;;;2.01;100.00;96596.34;107023;1269;138001;-87
2023/11/18 04:57:55;;;;;;;7.30;5.90;;;;;;;1.98;100.00;96599.30;107215;1278;22542;-87
2023/11/18 05:00:22;;;;;;;6.00;5.40;;;;;;;1.96;100.00;96605.27;107156;1275;137951;-87
2023/11/18 05:02:48;;;;;;;6.00;5.40;;;;;;;1.95;100.00;96605.91;107238;1277;22678;-87
2023/11/18 05:05:15;;;;;;;6.20;4.90;;;;;;;1.90;100.00;96609.19;107111;1276;22542;-87
2023/11/18 05:07:42;;;;;;;5.40;4.90;;;;;;;1.89;100.00;96606.40;107006;1278;138441;-87
2023/11/18 05:10:10;;;;;;;6.00;5.40;;;;;;;1.87;100.00;96611.35;107173;1278;22550;-87
2023/11/18 05:12:36;;;;;;;5.30;4.80;;;;;;;1.82;100.00;96615.66;110117;1278;139129;-87
2023/11/18 05:15:07;;;;;;;6.50;5.60;;;;;;;1.80;100.00;96614.27;110061;1277;22842;-87
2023/11/18 05:17:38;;;;;;;6.30;5.70;;;;;;;1.84;100.00;96613.33;110148;1272;23140;-87
2023/11/18 05:20:05;;;;;;;6.40;5.60;;;;;;;1.86;100.00;96610.75;110202;1278;22442;-88
2023/11/18 05:22:32;;;;;;;5.20;4.70;;;;;;;1.89;100.00;96615.46;110328;1278;22188;-88
2023/11/18 05:24:58;;;;;;;6.40;5.70;;;;;;;1.90;100.00;96614.15;108236;1277;138403;-87
2023/11/18 05:27:24;;;;;;;7.30;5.40;;;;;;;1.95;100.00;96621.08;107235;1277;22588;-87
2023/11/18 05:29:54;;;;;;;6.30;5.70;;;;;;;2.00;100.00;96621.39;107089;1278;138715;-87
2023/11/18 05:32:22;;;;;;;6.80;6.00;;;;;;;2.02;100.00;96622.43;107155;1278;25307;-87
2023/11/18 05:34:54;;;;;;;5.50;5.00;;;;;;;2.03;100.00;96620.80;107169;1278;26236;-87
2023/11/18 05:37:21;;;;;;;6.00;5.40;;;;;;;2.04;100.00;96622.61;107164;1277;138653;-87
2023/11/18 05:39:49;;;;;;;5.50;4.90;;;;;;;2.05;100.00;96623.02;107135;1277;22575;-87
2023/11/18 05:42:15;;;;;;;5.50;4.70;;;;;;;2.04;100.00;96622.61;108084;1278;138180;-87
2023/11/18 05:44:42;;;;;;;6.70;6.00;;;;;;;2.01;100.00;96628.28;107177;1276;25474;-87
2023/11/18 05:47:11;;;;;;;6.30;5.70;;;;;;;2.00;100.00;96630.62;107120;1278;26551;-87
2023/11/18 05:49:40;;;;;;;6.70;5.30;;;;;;;2.03;100.00;96631.70;106979;1278;138447;-87
2023/11/18 05:52:06;;;;;;;7.60;6.70;;;;;;;2.03;100.00;96633.61;107110;1278;24215;-87
2023/11/18 05:54:32;;;;;;;7.50;6.70;;;;;;;2.03;100.00;96637.20;106961;1278;138098;-88
2023/11/18 05:56:59;;;;;;;7.70;6.90;;;;;;;2.02;100.00;96630.63;107232;1276;23216;-87
2023/11/18 05:59:26;;;;;;;8.40;7.60;;;;;;;2.05;100.00;96633.05;107200;1278;25371;-87
2023/11/18 06:01:53;;;;;;;9.50;7.70;;;;;;;2.07;100.00;96631.51;107033;1278;138537;-87
2023/11/18 06:04:19;;;;;;;8.80;7.40;;;;;;;2.09;100.00;96627.28;107189;1278;25267;-87
2023/11/18 06:06:45;;;;;;;9.40;8.40;;;;;;;2.11;100.00;96629.36;107157;1266;138194;-88
2023/11/18 06:09:20;;;;;;;7.70;6.10;;;;;;;2.10;100.00;96632.82;107227;1277;22540;-88
2023/11/18 06:11:47;;;;;;;9.10;6.90;;;;;;;2.07;100.00;96637.68;107145;1275;138735;-87
2023/11/18 06:14:13;;;;;;;9.00;8.10;;;;;;;2.05;100.00;96637.91;106963;1278;22899;-88
2023/11/18 06:16:42;;;;;;;8.10;6.50;;;;;;;2.06;100.00;96638.32;107104;1278;22544;-87
2023/11/18 06:19:08;;;;;;;7.20;6.40;;;;;;;2.03;100.00;96638.73;107145;1276;138021;-88
2023/11/18 06:21:34;;;;;;;10.30;8.30;;;;;;;2.02;100.00;96645.61;107270;1275;23262;-88
2023/11/18 06:24:00;;;;;;;8.80;7.10;;;;;;;2.02;100.00;96650.22;107167;1277;138338;-87
2023/11/18 06:26:27;;;;;;;7.70;6.40;;;;;;;2.01;100.00;96650.83;107084;1276;22577;-87
2023/11/18 06:28:53;;;;;;;6.60;5.80;;;;;;;2.02;100.00;96655.53;107292;1276;22547;-88
2023/11/18 06:31:20;;;;;;;9.10;8.00;;;;;;;1.99;100.00;96660.56;107147;1276;138886;-87
2023/11/18 06:33:48;;;;;;;12.40;9.60;;;;;;;1.98;100.00;96658.28;107288;1276;22633;-88
2023/11/18 06:36:14;;;;;;;11.40;8.60;;;;;;;1.98;100.00;96660.49;107107;1276;138536;-88
2023/11/18 06:38:41;;;;;;;14.30;9.70;;;;;;;1.97;100.00;96663.27;107274;1277;23914;-88
2023/11/18 06:41:16;;;;;;;9.30;7.50;;;;;;;1.99;100.00;96665.20;107322;1276;22607;-88
2023/11/18 06:46:28;;;;;;;13.30;10.10;;;;;;;2.02;100.00;96680.67;107327;1277;25246;-87
2023/11/18 06:48:54;;;;;;;17.70;10.60;;;;;;;2.00;100.00;96682.55;110157;1278;140476;-88
2023/11/18 06:51:24;;;;;;;19.20;12.00;;;;;;;1.99;100.00;96688.60;110259;1278;22604;-88
2023/11/18 06:53:57;;;;;;;41.10;21.90;;;;;;;2.00;100.00;96696.89;108603;1278;138955;-88
2023/11/18 06:56:27;;;;;;;9.80;6.90;;;;;;;1.99;100.00;96702.14;107093;1278;25335;-88
2023/11/18 06:58:54;;;;;;;12.90;10.20;;;;;;;1.96;100.00;96704.41;107106;1276;22559;-88
2023/11/18 07:01:20;;;;;;;14.60;11.00;;;;;;;1.94;100.00;96708.66;106960;1277;138341;-87
2023/11/18 07:03:48;;;;;;;8.80;6.00;;;;;;;1.95;100.00;96708.39;107163;1277;22545;-87
2023/11/18 07:06:21;;;;;;;6.60;5.50;;;;;;;1.97;100.00;96711.54;110120;1277;139555;-88
2023/11/18 07:08:49;;;;;;;7.70;5.30;;;;;;;2.01;100.00;96716.50;110200;1278;22229;-89
2023/11/18 07:11:16;;;;;;;7.70;5.90;;;;;;;2.03;100.00;96715.23;110193;1278;22199;-88
2023/11/18 07:13:42;;;;;;;15.70;10.50;;;;;;;2.05;100.00;96722.98;109968;1278;139579;-88
2023/11/18 07:16:09;;;;;;;6.10;5.50;;;;;;;2.09;100.00;96723.52;110285;1273;22982;-88
2023/11/18 07:18:36;;;;;;;7.20;6.30;;;;;;;2.10;100.00;96727.83;110201;1277;139332;-88
2023/11/18 07:21:04;;;;;;;6.70;5.10;;;;;;;2.14;100.00;96728.27;110290;1270;22345;-88
2023/11/18 07:23:33;;;;;;;6.30;5.50;;;;;;;2.17;100.00;96729.73;107598;1278;22577;-87
2023/11/18 07:25:59;;;;;;;9.90;7.00;;;;;;;2.22;100.00;96727.98;107059;1270;138467;-87
2023/11/18 07:28:25;;;;;;;9.30;6.20;;;;;;;2.26;100.00;96728.83;107056;1278;25306;-87
2023/11/18 07:30:53;;;;;;;8.90;7.20;;;;;;;2.27;100.00;96733.01;107064;1278;137957;-87
2023/11/18 07:33:19;;;;;;;8.70;6.60;;;;;;;2.29;100.00;96730.50;107061;1277;22619;-87
2023/11/18 07:35:46;;;;;;;10.30;7.70;;;;;;;2.33;100.00;96734.92;107084;1270;138640;-88
2023/11/18 07:38:12;;;;;;;7.50;5.90;;;;;;;2.37;100.00;96738.35;107133;1278;24366;-87
2023/11/18 07:40:42;;;;;;;8.70;7.20;;;;;;;2.35;100.00;96739.88;107179;1278;22563;-87
2023/11/18 07:43:08;;;;;;;7.80;5.90;;;;;;;2.39;100.00;96744.52;107125;1270;137996;-88
2023/11/18 07:45:37;;;;;;;7.50;5.80;;;;;;;2.38;100.00;96746.14;106994;1278;22537;-88
2023/11/18 07:48:12;;;;;;;7.90;6.20;;;;;;;2.40;100.00;96748.07;110144;1272;138724;-88
2023/11/18 07:50:41;;;;;;;7.00;5.50;;;;;;;2.43;100.00;96748.64;110246;1278;22442;-88
2023/11/18 07:53:07;;;;;;;6.50;5.60;;;;;;;2.51;100.00;96751.11;110281;1278;22376;-88
2023/11/18 07:55:34;;;;;;;8.40;5.80;;;;;;;2.52;100.00;96751.36;108598;1278;139861;-88
2023/11/18 07:58:10;;;;;;;8.00;6.20;;;;;;;2.53;100.00;96749.75;107213;1277;25339;-88
2023/11/18 08:00:42;;;;;;;12.80;9.10;;;;;;;2.52;100.00;96749.83;107044;1272;138886;-87
2023/11/18 08:03:11;;;;;;;;;;;;;;;2.54;100.00;96752.10;107244;1270;22591;-88
2023/11/18 08:05:43;;;;;;;8.80;7.10;;;;;;;2.50;100.00;96758.39;107108;1277;22608;-87
2023/11/18 08:08:12;;;;;;;8.90;7.30;;;;;;;2.48;100.00;96759.59;108986;1277;22558;-87
2023/11/18 08:10:39;;;;;;;10.60;8.30;;;;;;;2.49;100.00;96764.98;107180;1277;22607;-87
2023/11/18 08:13:07;;;;;;;12.20;8.30;;;;;;;2.48;100.00;96769.83;110190;1278;139501;-88
2023/11/18 08:15:34;;;;;;;10.30;8.00;;;;;;;2.44;100.00;96774.08;110281;1278;22268;-88
2023/11/18 08:18:01;;;;;;;8.30;7.00;;;;;;;2.47;100.00;96769.71;109936;1273;138617;-87
2023/11/18 08:20:26;;;;;;;11.00;8.10;;;;;;;2.50;100.00;96772.02;110082;1274;22284;-87
2023/11/18 08:22:53;;;;;;;9.90;8.30;;;;;;;2.51;100.00;96776.25;108185;1277;22583;-86
2023/11/18 08:25:19;;;;;;;10.80;8.20;;;;;;;2.51;100.00;96784.62;107064;1278;138051;-87
2023/11/18 08:27:47;;;;;;;9.90;7.70;;;;;;;2.49;100.00;96785.87;107051;1273;26251;-87
2023/11/18 08:30:14;;;;;;;13.10;8.80;;;;;;;2.46;100.00;96783.74;107106;1278;138366;-87
2023/11/18 08:32:43;;;;;;;11.10;8.70;;;;;;;2.45;100.00;96784.48;107095;1278;22999;-87
2023/11/18 08:35:10;;;;;;;11.80;9.00;;;;;;;2.48;100.00;96786.80;107195;1277;24265;-87
2023/11/18 08:37:37;;;;;;;10.50;7.70;;;;;;;2.52;100.00;96787.95;107130;1273;138173;-86
2023/11/18 08:40:06;;;;;;;12.40;9.10;;;;;;;2.56;100.00;96785.22;107129;1278;22609;-87
2023/11/18 08:42:34;;;;;;;13.60;8.90;;;;;;;2.54;100.00;96783.39;107097;1270;138965;-88
2023/11/18 08:45:00;;;;;;;12.20;9.30;;;;;;;2.56;100.00;96785.73;110260;1277;22266;-87
2023/11/18 08:47:27;;;;;;;15.10;10.70;;;;;;;2.58;100.00;96798.39;110263;1270;22523;-88
2023/11/18 08:49:53;;;;;;;14.50;11.20;;;;;;;2.53;100.00;96799.31;110155;1277;139644;-88
2023/11/18 08:52:19;;;;;;;14.70;11.30;;;;;;;2.48;100.00;96803.39;109566;1278;22554;-88
2023/11/18 08:57:48;;;;;;;19.10;12.90;;;;;;;2.36;100.00;96805.48;107194;1278;25480;-87
2023/11/18 09:03:01;;;;;;;16.60;12.40;;;;;;;2.37;100.00;96808.81;107125;1278;23187;-88
2023/11/18 09:05:31;;;;;;;19.10;13.30;;;;;;;2.37;100.00;96805.22;107058;1278;22543;-88
2023/11/18 09:08:02;;;;;;;20.20;14.60;;;;;;;2.30;100.00;96808.67;106984;1277;138814;-88
2023/11/18 09:10:28;;;;;;;19.00;12.60;;;;;;;2.21;100.00;96811.23;107255;1270;22640;-87
2023/11/18 09:12:55;;;;;;;20.60;14.20;;;;;;;2.17;100.00;96810.27;106918;1276;138803;-87
2023/11/18 09:15:23;;;;;;;19.90;13.20;;;;;;;2.15;100.00;96813.16;107237;1276;22541;-87
2023/11/18 09:17:49;;;;;;;21.90;14.20;;;;;;;2.17;100.00;96814.71;107178;1276;138545;-87
2023/11/18 09:20:20;;;;;;;20.50;13.30;;;;;;;2.19;100.00;96815.33;107230;1278;22532;-88
2023/11/18 09:22:46;;;;;;;23.70;14.80;;;;;;;2.20;100.00;96817.98;107283;1269;23600;-88
2023/11/18 09:25:12;;;;;;;20.00;13.50;;;;;;;2.16;100.00;96815.06;107083;1276;138989;-88
2023/11/18 09:27:39;;;;;;;24.70;15.90;;;;;;;2.12;100.00;96814.88;107201;1270;22541;-88
2023/11/18 09:30:14;;;;;;;20.40;13.80;;;;;;;2.07;100.00;96818.63;107198;1277;139482;-88
2023/11/18 09:32:41;;;;;;;16.70;11.10;;;;;;;2.07;100.00;96816.44;107262;1277;22528;-87
2023/11/18 09:35:09;;;;;;;18.90;11.70;;;;;;;2.07;100.00;96820.55;110174;1278;22199;-88
2023/11/18 09:37:36;;;;;;;22.80;14.10;;;;;;;2.04;100.00;96820.31;110121;1277;138863;-88
2023/11/18 09:40:11;;;;;;;24.30;16.20;;;;;;;2.02;100.00;96819.77;110314;1277;22424;-87
2023/11/18 09:42:38;;;;;;;20.20;13.10;;;;;;;2.01;100.00;96822.42;110152;1277;139338;-88
2023/11/18 09:45:05;;;;;;;23.10;14.30;;;;;;;1.96;100.00;96821.75;108401;1273;22772;-88
2023/11/18 09:47:34;;;;;;;18.30;11.30;;;;;;;1.96;100.00;96824.31;107048;1277;22647;-88
2023/11/18 09:50:01;;;;;;;19.10;12.70;;;;;;;1.96;100.00;96825.56;106894;1278;139131;-87
2023/11/18 09:52:31;;;;;;;21.10;13.30;;;;;;;1.96;100.00;96827.60;107157;1277;22591;-88
2023/11/18 09:55:04;;;;;;;19.10;13.00;;;;;;;1.97;100.00;96832.31;106984;1278;138417;-87
2023/11/18 09:57:39;;;;;;;19.80;12.70;;;;;;;1.96;100.00;96837.17;106927;1278;23247;-87
2023/11/18 10:02:47;;;;;;;18.90;13.40;;;;;;;1.84;100.00;96842.05;110178;1278;22900;-88
2023/11/18 10:05:13;;;;;;;19.50;13.70;;;;;;;1.84;100.00;96845.27;110149;1278;22237;-87
2023/11/18 10:07:41;;;;;;;21.90;15.70;;;;;;;1.85;100.00;96848.98;110199;1277;138621;-88
2023/11/18 10:10:14;;;;;;;18.40;11.90;;;;;;;1.86;100.00;96854.69;110201;1277;22192;-88
2023/11/18 10:12:43;;;;;;;15.80;10.30;;;;;;;1.85;100.00;96851.52;110184;1277;139369;-88
2023/11/18 10:15:11;;;;;;;14.30;10.40;;;;;;;1.82;100.00;96854.14;110111;1278;22282;-88
2023/11/18 10:17:54;;;;;;;13.20;10.10;;;;;;;1.79;100.00;96854.51;110224;1272;22187;-88
2023/11/18 10:20:25;;;;;;;10.90;9.00;;;;;;;1.75;100.00;96855.25;110129;1273;22341;-88
2023/11/18 10:23:06;;;;;;;12.20;9.10;;;;;;;1.77;100.00;96858.08;107093;1272;25403;-87
2023/11/18 10:25:34;;;;;;;12.00;8.40;;;;;;;1.74;100.00;96864.59;107130;1270;139122;-87
2023/11/18 10:28:02;;;;;;;10.30;8.00;;;;;;;1.70;100.00;96863.04;107159;1278;22572;-87
2023/11/18 10:30:31;;;;;;;12.50;8.80;;;;;;;1.65;100.00;96869.09;107052;1277;138670;-87
2023/11/18 10:33:07;;;;;;;14.00;8.60;;;;;;;1.64;100.00;96874.41;110265;1267;23156;-88
2023/11/18 10:35:34;;;;;;;12.00;7.90;;;;;;;1.61;100.00;96873.80;110185;1268;22757;-87
2023/11/18 10:38:06;;;;;;;12.20;9.00;;;;;;;1.58;100.00;96879.45;110034;1278;138449;-88
2023/11/18 10:40:36;;;;;;;11.80;8.80;;;;;;;1.56;100.00;96879.30;110254;1277;22272;-88
2023/11/18 10:43:09;;;;;;;11.70;8.90;;;;;;;1.57;100.00;96882.99;110185;1278;138824;-88
2023/11/18 10:45:38;;;;;;;10.30;6.90;;;;;;;1.55;100.00;96880.58;110091;1269;22556;-88
2023/11/18 10:48:07;;;;;;;11.50;7.50;;;;;;;1.55;100.00;96880.69;108399;1277;138988;-87
2023/11/18 10:50:34;;;;;;;10.00;7.20;;;;;;;1.57;100.00;96881.58;107010;1277;22558;-87
2023/11/18 10:53:10;;;;;;;9.80;6.90;;;;;;;1.54;100.00;96888.19;107177;1277;22541;-87
2023/11/18 10:55:37;;;;;;;12.50;8.70;;;;;;;1.54;100.00;96888.17;107143;1278;138118;-87
2023/11/18 10:58:04;;;;;;;11.60;8.30;;;;;;;1.53;100.00;96890.27;107014;1277;22593;-87
2023/11/18 11:00:49;;;;;;;10.40;7.80;;;;;;;1.54;100.00;96890.55;107003;1278;138978;-87
2023/11/18 11:03:16;;;;;;;12.40;9.50;;;;;;;1.56;100.00;96892.77;107193;1276;22536;-87
2023/11/18 11:05:43;;;;;;;13.10;9.70;;;;;;;1.56;100.00;96898.71;107065;1270;138360;-86
2023/11/18 11:08:13;;;;;;;13.20;10.70;;;;;;;1.59;100.00;96897.83;107141;1270;25363;-87
2023/11/18 11:10:43;;;;;;;12.10;9.90;;;;;;;1.62;100.00;96899.65;107150;1254;22571;-88
2023/11/18 11:13:09;;;;;;;10.70;9.10;;;;;;;1.58;100.00;96901.65;107082;1278;138249;-88
2023/11/18 11:15:42;;;;;;;11.70;9.20;;;;;;;1.58;100.00;96908.38;107208;1272;24376;-87
2023/11/18 11:18:09;;;;;;;10.10;8.80;;;;;;;1.57;100.00;96912.70;107103;1278;139455;-87
2023/11/18 11:20:48;;;;;;;14.00;9.90;;;;;;;1.60;100.00;96914.85;107166;1278;22545;-86
2023/11/18 11:23:43;;;;;;;14.90;11.30;;;;;;;1.57;100.00;96918.34;110331;1277;22376;-88
2023/11/18 11:26:13;;;;;;;11.80;9.00;;;;;;;1.58;100.00;96920.16;110352;1277;22393;-88
2023/11/18 11:29:13;;;;;;;11.80;8.80;;;;;;;1.57;100.00;96922.05;110325;1275;23148;-88